sensor_id;sensor_type;location;lat;lon;timestamp;pressure;altitude;pressure_sealevel;temperature;humidity
69171;BME280;56279;47.902;12.308;2023-05-21T02:33:29;94996.69;;;13.84;66.67
69171;BME280;56279;47.902;12.308;2023-05-21T02:35:30;94984.53;;;13.83;66.62
69171;BME280;56279;47.902;12.308;2023-05-21T02:37:32;94989.06;;;13.82;66.88
69171;BME280;56279;47.902;12.308;2023-05-21T02:39:35;94992.03;;;13.81;66.81
69171;BME280;56279;47.902;12.308;2023-05-21T02:41:36;94985.44;;;13.78;66.96
69171;BME280;56279;47.902;12.308;2023-05-21T02:43:38;94986.53;;;13.77;67.12
69171;BME280;56279;47.902;12.308;2023-05-21T06:02:01;94974.75;;;17.52;61.50
69171;BME280;56279;47.902;12.308;2023-05-21T06:04:03;94974.75;;;17.64;61.00
69171;BME280;56279;47.902;12.308;2023-05-21T06:06:05;94974.81;;;17.76;60.65
69171;BME280;56279;47.902;12.308;2023-05-21T06:08:12;94978.16;;;17.85;60.37
69171;BME280;56279;47.902;12.308;2023-05-21T06:10:13;94977.41;;;17.97;60.03
69171;BME280;56279;47.902;12.308;2023-05-21T06:12:16;94981.00;;;18.13;59.79
69171;BME280;56279;47.902;12.308;2023-05-21T06:14:19;94971.09;;;18.26;59.42
69171;BME280;56279;47.902;12.308;2023-05-21T06:16:20;94977.34;;;18.42;59.54
69171;BME280;56279;47.902;12.308;2023-05-21T06:18:21;94970.13;;;18.54;58.90
69171;BME280;56279;47.902;12.308;2023-05-21T06:20:26;94971.59;;;18.64;58.20
69171;BME280;56279;47.902;12.308;2023-05-21T06:22:30;94968.44;;;18.74;58.40
69171;BME280;56279;47.902;12.308;2023-05-21T06:24:31;94971.00;;;18.83;57.97
69171;BME280;56279;47.902;12.308;2023-05-21T06:26:32;94977.34;;;18.90;57.94
69171;BME280;56279;47.902;12.308;2023-05-21T06:28:34;94969.41;;;18.94;57.59
69171;BME280;56279;47.902;12.308;2023-05-21T06:30:41;94974.09;;;18.97;57.71
69171;BME280;56279;47.902;12.308;2023-05-21T06:33:19;94966.59;;;19.02;57.63
69171;BME280;56279;47.902;12.308;2023-05-21T06:35:22;94962.47;;;19.05;58.01
69171;BME280;56279;47.902;12.308;2023-05-21T06:37:23;94972.16;;;19.09;57.39
69171;BME280;56279;47.902;12.308;2023-05-21T06:39:26;94974.16;;;19.12;57.89
69171;BME280;56279;47.902;12.308;2023-05-21T06:41:29;94962.44;;;19.17;56.99
69171;BME280;56279;47.902;12.308;2023-05-21T06:43:33;94971.69;;;19.19;57.05
69171;BME280;56279;47.902;12.308;2023-05-21T06:46:03;94969.44;;;19.21;57.59
69171;BME280;56279;47.902;12.308;2023-05-21T06:48:12;94974.91;;;19.25;57.32
69171;BME280;56279;47.902;12.308;2023-05-21T06:50:16;94972.69;;;19.27;57.01
69171;BME280;56279;47.902;12.308;2023-05-21T06:52:18;94979.25;;;19.29;56.65
69171;BME280;56279;47.902;12.308;2023-05-21T06:54:19;94974.78;;;19.33;56.65
69171;BME280;56279;47.902;12.308;2023-05-21T06:56:22;94983.25;;;19.36;55.95
69171;BME280;56279;47.902;12.308;2023-05-21T06:58:27;94977.44;;;19.33;56.32
69171;BME280;56279;47.902;12.308;2023-05-21T07:00:31;94977.00;;;19.31;56.07
69171;BME280;56279;47.902;12.308;2023-05-21T07:02:32;94978.22;;;19.34;56.37
69171;BME280;56279;47.902;12.308;2023-05-21T07:04:34;94978.03;;;19.39;55.96
69171;BME280;56279;47.902;12.308;2023-05-21T07:06:47;94985.47;;;19.46;55.92
69171;BME280;56279;47.902;12.308;2023-05-21T07:08:49;94982.19;;;19.52;56.05
69171;BME280;56279;47.902;12.308;2023-05-21T07:10:51;94981.59;;;19.59;55.73
69171;BME280;56279;47.902;12.308;2023-05-21T07:12:53;94973.09;;;19.69;55.41
69171;BME280;56279;47.902;12.308;2023-05-21T07:14:55;94981.31;;;19.76;54.92
69171;BME280;56279;47.902;12.308;2023-05-21T07:16:56;94986.06;;;19.82;55.75
69171;BME280;56279;47.902;12.308;2023-05-21T07:18:57;94976.75;;;19.92;55.48
69171;BME280;56279;47.902;12.308;2023-05-21T07:20:59;94984.19;;;19.98;55.09
69171;BME280;56279;47.902;12.308;2023-05-21T07:23:01;94976.34;;;20.06;54.67
69171;BME280;56279;47.902;12.308;2023-05-21T07:25:04;94983.78;;;20.12;54.58
69171;BME280;56279;47.902;12.308;2023-05-21T07:27:06;94973.66;;;20.21;54.08
69171;BME280;56279;47.902;12.308;2023-05-21T07:29:10;94973.97;;;20.32;54.67
69171;BME280;56279;47.902;12.308;2023-05-21T07:31:12;94981.13;;;20.43;54.44
69171;BME280;56279;47.902;12.308;2023-05-21T07:33:18;94976.00;;;20.54;54.09
69171;BME280;56279;47.902;12.308;2023-05-21T07:35:20;94975.59;;;20.67;53.30
69171;BME280;56279;47.902;12.308;2023-05-21T07:37:23;94979.28;;;20.79;54.09
69171;BME280;56279;47.902;12.308;2023-05-21T07:39:25;94971.44;;;20.89;53.64
69171;BME280;56279;47.902;12.308;2023-05-21T07:41:27;94969.81;;;21.00;53.32
69171;BME280;56279;47.902;12.308;2023-05-21T07:43:30;94972.31;;;21.09;52.94
69171;BME280;56279;47.902;12.308;2023-05-21T07:45:33;94963.25;;;21.17;52.81
69171;BME280;56279;47.902;12.308;2023-05-21T07:47:34;94963.06;;;21.25;53.47
69171;BME280;56279;47.902;12.308;2023-05-21T07:49:35;94969.38;;;21.33;52.86
69171;BME280;56279;47.902;12.308;2023-05-21T07:51:38;94964.56;;;21.42;52.98
69171;BME280;56279;47.902;12.308;2023-05-21T07:53:40;94967.03;;;21.51;51.92
69171;BME280;56279;47.902;12.308;2023-05-21T07:55:46;94959.53;;;21.60;51.12
69171;BME280;56279;47.902;12.308;2023-05-21T07:57:54;94963.69;;;21.76;50.37
69171;BME280;56279;47.902;12.308;2023-05-21T08:00:03;94966.66;;;21.90;49.43
69171;BME280;56279;47.902;12.308;2023-05-21T08:02:16;94960.97;;;21.95;49.36
69171;BME280;56279;47.902;12.308;2023-05-21T08:04:18;94967.56;;;21.98;49.59
69171;BME280;56279;47.902;12.308;2023-05-21T08:06:20;94963.81;;;22.02;50.00
69171;BME280;56279;47.902;12.308;2023-05-21T08:08:26;94964.22;;;22.05;50.28
69171;BME280;56279;47.902;12.308;2023-05-21T08:10:30;94966.50;;;22.02;49.96
69171;BME280;56279;47.902;12.308;2023-05-21T08:12:31;94961.09;;;22.02;50.28
69171;BME280;56279;47.902;12.308;2023-05-21T08:14:33;94966.50;;;22.02;50.04
69171;BME280;56279;47.902;12.308;2023-05-21T08:16:35;94971.44;;;22.00;50.01
69171;BME280;56279;47.902;12.308;2023-05-21T08:18:36;94976.81;;;22.00;50.06
69171;BME280;56279;47.902;12.308;2023-05-21T08:20:38;94967.59;;;22.01;49.97
69171;BME280;56279;47.902;12.308;2023-05-21T08:22:41;94978.06;;;22.07;49.75
69171;BME280;56279;47.902;12.308;2023-05-21T08:24:43;94970.84;;;22.11;49.25
69171;BME280;56279;47.902;12.308;2023-05-21T08:26:45;94970.19;;;22.17;49.71
69171;BME280;56279;47.902;12.308;2023-05-21T08:28:47;94963.44;;;22.27;49.31
69171;BME280;56279;47.902;12.308;2023-05-21T08:30:49;94973.88;;;22.32;48.05
69171;BME280;56279;47.902;12.308;2023-05-21T08:32:51;94964.03;;;22.39;48.47
69171;BME280;56279;47.902;12.308;2023-05-21T08:34:54;94964.94;;;22.47;48.72
69171;BME280;56279;47.902;12.308;2023-05-21T08:37:17;94969.34;;;22.58;48.66
69171;BME280;56279;47.902;12.308;2023-05-21T08:39:33;94970.25;;;22.66;47.65
69171;BME280;56279;47.902;12.308;2023-05-21T08:41:35;94973.75;;;22.70;47.79
69171;BME280;56279;47.902;12.308;2023-05-21T08:43:40;94974.59;;;22.74;46.97
69171;BME280;56279;47.902;12.308;2023-05-21T08:45:52;94979.25;;;22.77;47.23
69171;BME280;56279;47.902;12.308;2023-05-21T08:47:57;94975.09;;;22.83;46.55
69171;BME280;56279;47.902;12.308;2023-05-21T08:52:26;94975.69;;;22.96;46.34
69171;BME280;56279;47.902;12.308;2023-05-21T08:54:29;94973.44;;;23.01;46.36
69171;BME280;56279;47.902;12.308;2023-05-21T08:56:33;94975.47;;;23.08;46.13
69171;BME280;56279;47.902;12.308;2023-05-21T08:58:40;94978.97;;;23.12;46.09
69171;BME280;56279;47.902;12.308;2023-05-21T09:00:44;94975.59;;;23.18;45.80
69171;BME280;56279;47.902;12.308;2023-05-21T09:02:46;94977.19;;;23.23;45.64
69171;BME280;56279;47.902;12.308;2023-05-21T09:04:48;94978.38;;;23.25;45.60
69171;BME280;56279;47.902;12.308;2023-05-21T09:06:50;94978.06;;;23.30;45.58
69171;BME280;56279;47.902;12.308;2023-05-21T09:09:03;94983.06;;;23.32;45.79
69171;BME280;56279;47.902;12.308;2023-05-21T09:11:21;94982.66;;;23.30;45.50
69171;BME280;56279;47.902;12.308;2023-05-21T09:13:30;94983.88;;;23.32;45.42
69171;BME280;56279;47.902;12.308;2023-05-21T09:15:36;94985.88;;;23.35;44.90
69171;BME280;56279;47.902;12.308;2023-05-21T09:17:38;94990.97;;;23.44;44.80
69171;BME280;56279;47.902;12.308;2023-05-21T09:20:10;94984.44;;;23.45;44.58
69171;BME280;56279;47.902;12.308;2023-05-21T09:22:16;94988.72;;;23.50;45.39
69171;BME280;56279;47.902;12.308;2023-05-21T09:24:20;94990.31;;;23.54;44.49
69171;BME280;56279;47.902;12.308;2023-05-21T09:26:24;94987.66;;;23.58;44.70
69171;BME280;56279;47.902;12.308;2023-05-21T09:28:29;94992.72;;;23.63;44.76
69171;BME280;56279;47.902;12.308;2023-05-21T10:27:11;94975.88;;;24.94;41.36
69171;BME280;56279;47.902;12.308;2023-05-21T10:29:14;94976.66;;;24.98;41.06
69171;BME280;56279;47.902;12.308;2023-05-21T10:31:17;94972.09;;;25.02;41.01
69171;BME280;56279;47.902;12.308;2023-05-21T10:33:19;94971.66;;;25.00;40.18
69171;BME280;56279;47.902;12.308;2023-05-21T10:35:24;94973.19;;;24.97;40.46
69171;BME280;56279;47.902;12.308;2023-05-21T10:37:26;94962.38;;;24.97;40.63
69171;BME280;56279;47.902;12.308;2023-05-21T10:39:31;94955.06;;;24.94;40.10
69171;BME280;56279;47.902;12.308;2023-05-21T10:41:42;94965.03;;;24.87;39.99
69171;BME280;56279;47.902;12.308;2023-05-21T10:55:10;94957.03;;;25.01;40.62
69171;BME280;56279;47.902;12.308;2023-05-21T10:59:56;94953.53;;;25.00;39.17
69171;BME280;56279;47.902;12.308;2023-05-21T11:02:04;94955.47;;;25.00;38.25
69171;BME280;56279;47.902;12.308;2023-05-21T11:04:08;94962.38;;;24.97;38.93
69171;BME280;56279;47.902;12.308;2023-05-21T11:06:21;94950.06;;;25.00;38.90
69171;BME280;56279;47.902;12.308;2023-05-21T11:08:34;94952.75;;;25.00;39.02
69171;BME280;56279;47.902;12.308;2023-05-21T11:10:39;94950.84;;;24.97;38.18
69171;BME280;56279;47.902;12.308;2023-05-21T11:13:05;94942.00;;;25.03;38.42
69171;BME280;56279;47.902;12.308;2023-05-21T11:15:14;94948.97;;;25.08;38.62
69171;BME280;56279;47.902;12.308;2023-05-21T11:17:36;94935.50;;;25.18;39.59
69171;BME280;56279;47.902;12.308;2023-05-21T11:19:45;94937.47;;;25.25;39.23
69171;BME280;56279;47.902;12.308;2023-05-21T11:21:59;94938.66;;;25.34;38.12
69171;BME280;56279;47.902;12.308;2023-05-21T11:24:03;94935.59;;;25.39;39.33
69171;BME280;56279;47.902;12.308;2023-05-21T11:26:06;94938.75;;;25.49;39.39
69171;BME280;56279;47.902;12.308;2023-05-21T11:28:07;94938.41;;;25.57;39.48
69171;BME280;56279;47.902;12.308;2023-05-21T11:30:17;94936.88;;;25.63;40.00
69171;BME280;56279;47.902;12.308;2023-05-21T11:32:19;94930.34;;;25.71;39.18
69171;BME280;56279;47.902;12.308;2023-05-21T11:34:22;94933.44;;;25.73;38.57
69171;BME280;56279;47.902;12.308;2023-05-21T11:36:29;94931.47;;;25.70;39.24
69171;BME280;56279;47.902;12.308;2023-05-21T11:38:31;94933.81;;;25.72;38.49
69171;BME280;56279;47.902;12.308;2023-05-21T11:40:34;94931.88;;;25.72;37.98
69171;BME280;56279;47.902;12.308;2023-05-21T11:42:38;94934.94;;;25.67;38.04
69171;BME280;56279;47.902;12.308;2023-05-21T11:44:44;94930.69;;;25.70;38.69
69171;BME280;56279;47.902;12.308;2023-05-21T11:46:47;94928.81;;;25.74;38.27
69171;BME280;56279;47.902;12.308;2023-05-21T11:48:51;94927.25;;;25.69;37.39
69171;BME280;56279;47.902;12.308;2023-05-21T11:50:57;94930.28;;;25.61;37.83
69171;BME280;56279;47.902;12.308;2023-05-21T11:52:58;94920.25;;;25.54;36.71
69171;BME280;56279;47.902;12.308;2023-05-21T11:55:03;94921.00;;;25.48;37.27
69171;BME280;56279;47.902;12.308;2023-05-21T11:57:05;94926.41;;;25.51;36.94
69171;BME280;56279;47.902;12.308;2023-05-21T11:59:13;94926.41;;;25.58;37.39
69171;BME280;56279;47.902;12.308;2023-05-21T12:01:25;94927.25;;;25.69;38.38
69171;BME280;56279;47.902;12.308;2023-05-21T12:03:27;94919.91;;;25.77;37.68
69171;BME280;56279;47.902;12.308;2023-05-21T12:05:43;94927.25;;;25.80;37.78
69171;BME280;56279;47.902;12.308;2023-05-21T12:07:47;94929.56;;;25.81;37.31
69171;BME280;56279;47.902;12.308;2023-05-21T12:09:51;94914.91;;;25.82;36.31
69171;BME280;56279;47.902;12.308;2023-05-21T12:11:53;94924.19;;;25.85;37.87
69171;BME280;56279;47.902;12.308;2023-05-21T12:13:55;94920.31;;;25.89;37.72
69171;BME280;56279;47.902;12.308;2023-05-21T12:15:56;94924.19;;;25.92;36.86
69171;BME280;56279;47.902;12.308;2023-05-21T12:17:58;94921.09;;;25.93;37.52
69171;BME280;56279;47.902;12.308;2023-05-21T12:20:01;94925.75;;;25.96;37.72
69171;BME280;56279;47.902;12.308;2023-05-21T12:22:03;94924.59;;;25.97;37.06
69171;BME280;56279;47.902;12.308;2023-05-21T12:24:05;94917.63;;;25.89;36.05
69171;BME280;56279;47.902;12.308;2023-05-21T12:26:07;94925.72;;;25.82;36.10
69171;BME280;56279;47.902;12.308;2023-05-21T12:28:09;94922.25;;;25.78;36.34
69171;BME280;56279;47.902;12.308;2023-05-21T12:30:10;94918.75;;;25.81;37.37
69171;BME280;56279;47.902;12.308;2023-05-21T12:32:14;94914.16;;;25.85;37.06
69171;BME280;56279;47.902;12.308;2023-05-21T12:34:15;94915.69;;;25.93;37.36
69171;BME280;56279;47.902;12.308;2023-05-21T12:36:36;94916.50;;;25.97;36.79
69171;BME280;56279;47.902;12.308;2023-05-21T12:38:38;94914.94;;;25.96;36.17
69171;BME280;56279;47.902;12.308;2023-05-21T12:40:39;94916.06;;;25.95;35.06
69171;BME280;56279;47.902;12.308;2023-05-21T12:42:43;94912.22;;;25.89;35.80
69171;BME280;56279;47.902;12.308;2023-05-21T12:44:47;94911.81;;;25.91;36.44
69171;BME280;56279;47.902;12.308;2023-05-21T12:46:48;94916.47;;;25.87;36.41
69171;BME280;56279;47.902;12.308;2023-05-21T12:48:54;94919.91;;;25.73;36.52
69171;BME280;56279;47.902;12.308;2023-05-21T12:50:58;94919.50;;;25.64;37.44
69171;BME280;56279;47.902;12.308;2023-05-21T12:52:59;94914.47;;;25.59;37.73
69171;BME280;56279;47.902;12.308;2023-05-21T12:55:00;94912.91;;;25.55;37.40
69171;BME280;56279;47.902;12.308;2023-05-21T12:57:13;94914.81;;;25.47;37.45
69171;BME280;56279;47.902;12.308;2023-05-21T12:59:15;94913.63;;;25.45;37.17
69171;BME280;56279;47.902;12.308;2023-05-21T13:01:16;94915.56;;;25.44;37.56
69171;BME280;56279;47.902;12.308;2023-05-21T13:03:22;94914.81;;;25.47;37.93
69171;BME280;56279;47.902;12.308;2023-05-21T13:05:23;94914.06;;;25.50;36.90
69171;BME280;56279;47.902;12.308;2023-05-21T13:07:25;94912.50;;;25.46;37.03
69171;BME280;56279;47.902;12.308;2023-05-21T13:09:27;94907.81;;;25.39;37.70
69171;BME280;56279;47.902;12.308;2023-05-21T13:11:28;94910.09;;;25.37;38.67
69171;BME280;56279;47.902;12.308;2023-05-21T13:13:30;94907.78;;;25.35;38.66
69171;BME280;56279;47.902;12.308;2023-05-21T13:15:31;94908.94;;;25.34;38.31
69171;BME280;56279;47.902;12.308;2023-05-21T13:17:33;94901.22;;;25.29;37.89
69171;BME280;56279;47.902;12.308;2023-05-21T13:19:34;94905.44;;;25.27;38.28
69171;BME280;56279;47.902;12.308;2023-05-21T13:21:36;94903.53;;;25.31;38.89
69171;BME280;56279;47.902;12.308;2023-05-21T13:23:37;94896.22;;;25.42;38.34
69171;BME280;56279;47.902;12.308;2023-05-21T13:25:38;94890.13;;;25.59;38.21
69171;BME280;56279;47.902;12.308;2023-05-21T13:27:40;94888.25;;;25.77;37.86
69171;BME280;56279;47.902;12.308;2023-05-21T13:29:42;94888.28;;;25.98;38.38
69171;BME280;56279;47.902;12.308;2023-05-21T13:31:46;94897.56;;;26.19;38.40
69171;BME280;56279;47.902;12.308;2023-05-21T13:33:47;94897.19;;;26.31;37.58
69171;BME280;56279;47.902;12.308;2023-05-21T13:35:49;94899.53;;;26.32;36.28
69171;BME280;56279;47.902;12.308;2023-05-21T13:37:51;94908.41;;;26.36;37.11
69171;BME280;56279;47.902;12.308;2023-05-21T13:39:53;94890.22;;;26.54;37.70
69171;BME280;56279;47.902;12.308;2023-05-21T13:41:54;94891.75;;;26.73;36.84
69171;BME280;56279;47.902;12.308;2023-05-21T13:43:57;94892.53;;;26.88;35.58
69171;BME280;56279;47.902;12.308;2023-05-21T13:45:58;94893.66;;;26.94;34.58
69171;BME280;56279;47.902;12.308;2023-05-21T13:47:59;94882.44;;;27.02;34.76
69171;BME280;56279;47.902;12.308;2023-05-21T13:50:01;94893.97;;;27.17;34.99
69171;BME280;56279;47.902;12.308;2023-05-21T13:52:04;94887.75;;;27.27;34.87
69171;BME280;56279;47.902;12.308;2023-05-21T13:54:05;94892.34;;;27.33;35.70
69171;BME280;56279;47.902;12.308;2023-05-21T13:56:06;94892.34;;;27.33;34.66
69171;BME280;56279;47.902;12.308;2023-05-21T13:58:08;94888.53;;;27.24;35.21
69171;BME280;56279;47.902;12.308;2023-05-21T14:00:10;94890.88;;;27.15;35.59
69171;BME280;56279;47.902;12.308;2023-05-21T14:02:17;94887.78;;;27.16;36.93
69171;BME280;56279;47.902;12.308;2023-05-21T14:04:19;94887.34;;;27.28;36.37
69171;BME280;56279;47.902;12.308;2023-05-21T14:06:20;94886.16;;;27.40;35.02
69171;BME280;56279;47.902;12.308;2023-05-21T14:08:23;94886.16;;;27.44;34.21
69171;BME280;56279;47.902;12.308;2023-05-21T14:10:24;94878.38;;;27.46;34.61
69171;BME280;56279;47.902;12.308;2023-05-21T14:12:26;94873.75;;;27.42;34.50
69171;BME280;56279;47.902;12.308;2023-05-21T14:14:36;94874.19;;;27.30;34.79
69171;BME280;56279;47.902;12.308;2023-05-21T14:16:45;94873.03;;;27.24;34.74
69171;BME280;56279;47.902;12.308;2023-05-21T14:18:50;94876.50;;;27.28;35.62
69171;BME280;56279;47.902;12.308;2023-05-21T14:42:50;94861.34;;;27.45;32.92
69171;BME280;56279;47.902;12.308;2023-05-21T14:44:52;94860.16;;;27.50;33.16
69171;BME280;56279;47.902;12.308;2023-05-21T14:46:54;94857.78;;;27.59;34.00
69171;BME280;56279;47.902;12.308;2023-05-21T14:48:55;94862.41;;;27.62;33.69
69171;BME280;56279;47.902;12.308;2023-05-21T14:51:00;94861.22;;;27.70;34.38
69171;BME280;56279;47.902;12.308;2023-05-21T14:53:13;94853.81;;;27.74;33.40
69171;BME280;56279;47.902;12.308;2023-05-21T14:58:21;94857.66;;;27.80;32.29
69171;BME280;56279;47.902;12.308;2023-05-21T15:00:25;94856.84;;;27.86;33.75
69171;BME280;56279;47.902;12.308;2023-05-21T15:02:28;94851.38;;;27.90;32.52
69171;BME280;56279;47.902;12.308;2023-05-21T15:04:29;94851.81;;;27.85;32.69
69171;BME280;56279;47.902;12.308;2023-05-21T15:06:32;94853.31;;;27.93;33.05
69171;BME280;56279;47.902;12.308;2023-05-21T15:08:34;94857.53;;;27.97;32.22
69171;BME280;56279;47.902;12.308;2023-05-21T15:10:42;94858.31;;;28.01;32.22
69171;BME280;56279;47.902;12.308;2023-05-21T15:12:43;94861.34;;;28.11;32.53
69171;BME280;56279;47.902;12.308;2023-05-21T15:15:00;94852.41;;;28.14;32.04
69171;BME280;56279;47.902;12.308;2023-05-21T15:17:03;94855.53;;;28.12;31.56
69171;BME280;56279;47.902;12.308;2023-05-21T15:19:36;94854.44;;;28.02;32.00
69171;BME280;56279;47.902;12.308;2023-05-21T15:21:49;94861.78;;;27.98;32.44
69171;BME280;56279;47.902;12.308;2023-05-21T15:29:37;94844.56;;;28.26;31.99
69171;BME280;56279;47.902;12.308;2023-05-21T15:31:49;94838.25;;;28.36;31.88
69171;BME280;56279;47.902;12.308;2023-05-21T15:34:17;94844.66;;;28.60;31.59
69171;BME280;56279;47.902;12.308;2023-05-21T15:43:32;94832.84;;;29.98;31.17
69171;BME280;56279;47.902;12.308;2023-05-21T15:45:38;94834.75;;;30.24;30.30
69171;BME280;56279;47.902;12.308;2023-05-21T15:47:42;94837.97;;;30.42;30.65
69171;BME280;56279;47.902;12.308;2023-05-21T15:49:45;94837.44;;;30.51;30.01
69171;BME280;56279;47.902;12.308;2023-05-21T15:51:56;94835.78;;;30.57;29.28
69171;BME280;56279;47.902;12.308;2023-05-21T15:54:21;94838.25;;;30.71;29.42
69171;BME280;56279;47.902;12.308;2023-05-21T15:56:22;94833.84;;;30.77;28.79
69171;BME280;56279;47.902;12.308;2023-05-21T15:58:24;94833.91;;;30.73;28.23
69171;BME280;56279;47.902;12.308;2023-05-21T16:00:25;94839.00;;;30.71;28.56
69171;BME280;56279;47.902;12.308;2023-05-21T16:02:29;94837.69;;;30.80;29.00
69171;BME280;56279;47.902;12.308;2023-05-21T16:04:30;94831.31;;;30.86;29.40
69171;BME280;56279;47.902;12.308;2023-05-21T16:06:33;94837.38;;;30.97;29.28
69171;BME280;56279;47.902;12.308;2023-05-21T16:08:35;94837.22;;;31.04;28.48
69171;BME280;56279;47.902;12.308;2023-05-21T16:10:37;94829.28;;;31.13;29.05
69171;BME280;56279;47.902;12.308;2023-05-21T16:12:39;94834.75;;;31.13;28.42
69171;BME280;56279;47.902;12.308;2023-05-21T16:26:42;94828.69;;;30.83;28.53
69171;BME280;56279;47.902;12.308;2023-05-21T16:28:43;94831.41;;;30.83;29.09
69171;BME280;56279;47.902;12.308;2023-05-21T16:30:44;94823.84;;;30.70;28.73
69171;BME280;56279;47.902;12.308;2023-05-21T16:32:48;94834.66;;;30.54;28.71
69171;BME280;56279;47.902;12.308;2023-05-21T16:37:43;94831.34;;;30.43;28.62
69171;BME280;56279;47.902;12.308;2023-05-21T16:39:44;94831.06;;;30.57;28.89
69171;BME280;56279;47.902;12.308;2023-05-21T16:41:46;94823.50;;;30.68;28.86
69171;BME280;56279;47.902;12.308;2023-05-21T16:43:47;94828.34;;;30.81;28.87
69171;BME280;56279;47.902;12.308;2023-05-21T16:45:49;94827.22;;;30.78;28.43
69171;BME280;56279;47.902;12.308;2023-05-21T16:47:52;94827.81;;;30.66;28.55
69171;BME280;56279;47.902;12.308;2023-05-21T16:49:53;94835.25;;;30.42;28.15
69171;BME280;56279;47.902;12.308;2023-05-21T16:51:55;94826.97;;;30.23;28.59
69171;BME280;56279;47.902;12.308;2023-05-21T16:53:57;94827.94;;;30.13;28.71
69171;BME280;56279;47.902;12.308;2023-05-21T16:55:58;94832.53;;;30.16;29.24
69171;BME280;56279;47.902;12.308;2023-05-21T16:58:02;94828.22;;;30.18;28.72
69171;BME280;56279;47.902;12.308;2023-05-21T17:00:04;94829.91;;;30.12;29.11
69171;BME280;56279;47.902;12.308;2023-05-21T17:02:10;94832.13;;;29.94;29.56
69171;BME280;56279;47.902;12.308;2023-05-21T17:04:12;94823.81;;;29.78;29.51
69171;BME280;56279;47.902;12.308;2023-05-21T17:06:18;94836.13;;;29.59;29.40
69171;BME280;56279;47.902;12.308;2023-05-21T17:08:20;94830.91;;;29.41;29.63
69171;BME280;56279;47.902;12.308;2023-05-21T17:10:22;94826.88;;;29.23;29.66
69171;BME280;56279;47.902;12.308;2023-05-21T17:12:24;94824.38;;;29.02;29.67
69171;BME280;56279;47.902;12.308;2023-05-21T17:14:28;94831.63;;;28.82;30.40
69171;BME280;56279;47.902;12.308;2023-05-21T17:16:31;94829.50;;;28.62;30.57
69171;BME280;56279;47.902;12.308;2023-05-21T17:21:03;94827.66;;;28.04;31.39
69171;BME280;56279;47.902;12.308;2023-05-21T17:23:05;94830.53;;;27.80;31.36
69171;BME280;56279;47.902;12.308;2023-05-21T17:25:07;94826.44;;;27.58;31.60
69171;BME280;56279;47.902;12.308;2023-05-21T17:27:12;94838.50;;;27.35;31.94
69171;BME280;56279;47.902;12.308;2023-05-21T17:29:13;94829.72;;;27.17;32.09
69171;BME280;56279;47.902;12.308;2023-05-21T17:31:15;94827.84;;;27.04;32.75
69171;BME280;56279;47.902;12.308;2023-05-21T17:33:16;94831.75;;;26.92;33.05
69171;BME280;56279;47.902;12.308;2023-05-21T17:35:18;94832.56;;;26.86;33.37
69171;BME280;56279;47.902;12.308;2023-05-21T17:37:20;94836.84;;;26.76;33.56
69171;BME280;56279;47.902;12.308;2023-05-21T17:39:24;94837.22;;;26.74;33.82
69171;BME280;56279;47.902;12.308;2023-05-21T18:03:03;94845.75;;;25.81;35.54
69171;BME280;56279;47.902;12.308;2023-05-21T18:05:04;94849.19;;;25.61;35.76
69171;BME280;56279;47.902;12.308;2023-05-21T18:07:05;94847.97;;;25.40;35.74
69171;BME280;56279;47.902;12.308;2023-05-21T18:09:07;94854.47;;;25.22;36.32
69171;BME280;56279;47.902;12.308;2023-05-21T18:11:10;94859.03;;;25.00;36.70
69171;BME280;56279;47.902;12.308;2023-05-21T18:32:04;94865.91;;;22.82;39.35
69171;BME280;56279;47.902;12.308;2023-05-21T18:34:06;94869.94;;;22.65;40.14
69171;BME280;56279;47.902;12.308;2023-05-21T18:36:09;94872.31;;;22.48;40.42
69171;BME280;56279;47.902;12.308;2023-05-21T18:38:11;94872.91;;;22.34;40.83
69171;BME280;56279;47.902;12.308;2023-05-21T18:40:13;94875.75;;;22.19;41.12
69171;BME280;56279;47.902;12.308;2023-05-21T18:58:10;94896.47;;;21.12;43.43
69171;BME280;56279;47.902;12.308;2023-05-21T19:00:11;94905.47;;;21.04;43.87
69171;BME280;56279;47.902;12.308;2023-05-21T19:02:16;94900.63;;;20.94;44.32
69171;BME280;56279;47.902;12.308;2023-05-21T19:04:21;94903.91;;;20.84;44.57
69171;BME280;56279;47.902;12.308;2023-05-21T19:06:25;94909.44;;;20.75;45.09
69171;BME280;56279;47.902;12.308;2023-05-21T19:30:11;94920.16;;;19.93;49.19
69171;BME280;56279;47.902;12.308;2023-05-21T19:32:14;94921.97;;;19.89;49.61
69171;BME280;56279;47.902;12.308;2023-05-21T19:34:17;94927.25;;;19.86;49.85
69171;BME280;56279;47.902;12.308;2023-05-21T19:36:26;94924.81;;;19.81;49.79
69171;BME280;56279;47.902;12.308;2023-05-21T19:38:48;94925.88;;;19.76;49.94
69171;BME280;56279;47.902;12.308;2023-05-21T19:40:50;94923.88;;;19.73;50.24
69171;BME280;56279;47.902;12.308;2023-05-21T19:42:55;94926.44;;;19.70;50.96
69171;BME280;56279;47.902;12.308;2023-05-21T19:44:56;94933.97;;;19.64;51.03
69171;BME280;56279;47.902;12.308;2023-05-21T19:46:58;94930.75;;;19.59;51.26
69171;BME280;56279;47.902;12.308;2023-05-21T19:49:03;94941.69;;;19.54;51.27
69171;BME280;56279;47.902;12.308;2023-05-21T21:54:47;94941.25;;;17.01;58.31
69171;BME280;56279;47.902;12.308;2023-05-21T21:56:48;94939.25;;;16.98;58.55
69171;BME280;56279;47.902;12.308;2023-05-21T21:58:49;94948.69;;;16.96;58.42
69171;BME280;56279;47.902;12.308;2023-05-21T22:00:51;94945.56;;;16.94;58.60
69171;BME280;56279;47.902;12.308;2023-05-21T22:02:53;94939.44;;;16.93;58.41
69171;BME280;56279;47.902;12.308;2023-05-21T22:04:54;94950.91;;;16.94;58.28
69171;BME280;56279;47.902;12.308;2023-05-21T22:06:55;94940.53;;;16.92;58.17
69171;BME280;56279;47.902;12.308;2023-05-21T22:08:56;94948.22;;;16.94;58.14